createdAt,value
2019-03-20T00:02:28.407Z,15.80
2019-03-20T00:04:56.962Z,17.77
2019-03-20T00:07:25.407Z,16.93
2019-03-20T00:09:54.162Z,13.85
2019-03-20T00:12:23.056Z,20.57
2019-03-20T00:14:51.849Z,18.25
2019-03-20T00:17:20.750Z,10.98
2019-03-20T00:19:49.299Z,16.37
2019-03-20T00:22:17.746Z,16.93
2019-03-20T00:24:46.510Z,15.50
2019-03-20T00:27:14.962Z,16.93
2019-03-20T00:29:43.793Z,17.98
2019-03-20T00:32:12.675Z,20.25
2019-03-20T00:34:41.159Z,17.90
2019-03-20T00:37:10.067Z,17.20
2019-03-20T00:39:38.551Z,15.48
2019-03-20T00:42:07.083Z,21.42
2019-03-20T00:44:35.923Z,20.10
2019-03-20T00:47:04.375Z,16.42
2019-03-20T00:49:33.206Z,12.80
2019-03-20T00:52:01.667Z,16.20
2019-03-20T00:54:30.487Z,17.55
2019-03-20T00:56:58.943Z,14.58
2019-03-20T00:59:27.419Z,22.05
2019-03-20T01:01:55.884Z,14.20
2019-03-20T01:04:24.735Z,17.45
2019-03-20T01:06:53.527Z,15.08
2019-03-20T01:09:22.013Z,13.60
2019-03-20T01:11:50.531Z,17.75
2019-03-20T01:14:19.300Z,19.30
2019-03-20T01:16:48.088Z,18.50
2019-03-20T01:19:16.578Z,13.25
2019-03-20T01:21:45.363Z,17.27
2019-03-20T01:24:13.842Z,21.87
2019-03-20T01:26:42.645Z,17.45
2019-03-20T01:29:11.108Z,25.88
2019-03-20T01:31:39.921Z,21.52
2019-03-20T01:34:08.716Z,19.45
2019-03-20T01:36:37.199Z,16.48
2019-03-20T01:39:07.230Z,12.98
2019-03-20T01:41:38.305Z,15.10
2019-03-20T01:44:05.884Z,21.87
2019-03-20T01:46:34.628Z,13.80
2019-03-20T01:49:03.414Z,12.82
2019-03-20T01:51:31.895Z,13.03
2019-03-20T01:54:00.346Z,16.52
2019-03-20T01:56:28.831Z,14.65
2019-03-20T01:58:57.563Z,12.65
2019-03-20T02:01:26.355Z,14.15
2019-03-20T02:03:54.889Z,17.62
2019-03-20T02:06:23.435Z,12.78
2019-03-20T02:08:52.223Z,15.40
2019-03-20T02:11:21.017Z,9.88
2019-03-20T02:13:49.903Z,19.98
2019-03-20T02:16:18.383Z,19.85
2019-03-20T02:18:46.841Z,19.82
2019-03-20T02:21:15.319Z,14.15
2019-03-20T02:23:43.815Z,10.60
2019-03-20T02:26:12.642Z,19.57
2019-03-20T02:28:41.440Z,20.52
2019-03-20T02:31:09.983Z,14.10
2019-03-20T02:33:38.823Z,14.55
2019-03-20T02:36:07.296Z,12.07
2019-03-20T02:38:36.108Z,18.82
2019-03-20T02:41:04.649Z,14.98
2019-03-20T02:43:33.187Z,21.12
2019-03-20T02:46:02.171Z,13.25
2019-03-20T02:48:30.965Z,17.17
2019-03-20T02:50:59.859Z,17.52
2019-03-20T02:53:28.411Z,12.63
2019-03-20T02:55:56.972Z,18.95
2019-03-20T02:58:25.434Z,12.25
2019-03-20T03:00:54.312Z,17.25
2019-03-20T03:03:23.104Z,19.00
2019-03-20T03:06:05.641Z,16.20
2019-03-20T03:08:22.088Z,14.78
2019-03-20T03:10:50.632Z,16.93
2019-03-20T03:13:19.405Z,17.17
2019-03-20T03:15:47.963Z,12.68
2019-03-20T03:18:16.488Z,17.42
2019-03-20T03:20:44.960Z,17.10
2019-03-20T03:23:13.425Z,19.20
2019-03-20T03:25:42.424Z,17.40
2019-03-20T03:28:10.981Z,16.07
2019-03-20T03:30:39.469Z,16.75
2019-03-20T03:33:07.983Z,12.82
2019-03-20T03:35:36.518Z,13.45
2019-03-20T03:38:05.289Z,19.98
2019-03-20T03:40:34.072Z,18.23
2019-03-20T03:43:02.606Z,16.20
2019-03-20T03:45:31.135Z,9.30
2019-03-20T03:47:59.697Z,18.02
2019-03-20T03:50:28.533Z,16.65
2019-03-20T03:52:57.084Z,21.80
2019-03-20T03:55:25.546Z,17.85
2019-03-20T03:57:54.603Z,14.23
2019-03-20T04:00:23.393Z,11.55
2019-03-20T04:02:52.292Z,15.55
2019-03-20T04:05:21.081Z,16.32
2019-03-20T04:07:49.880Z,18.02
2019-03-20T04:10:18.893Z,15.72
2019-03-20T04:12:47.501Z,18.05
2019-03-20T04:15:16.785Z,15.40
2019-03-20T04:17:45.397Z,13.83
2019-03-20T04:20:18.130Z,14.23
2019-03-20T04:22:46.659Z,11.75
2019-03-20T04:25:15.392Z,19.60
2019-03-20T04:27:44.751Z,31.10
2019-03-20T04:30:17.509Z,17.98
2019-03-20T04:32:46.120Z,20.02
2019-03-20T04:35:15.197Z,18.62
2019-03-20T04:37:43.752Z,13.50
2019-03-20T04:40:15.032Z,27.25
2019-03-20T04:42:43.919Z,16.62
2019-03-20T04:45:13.769Z,16.00
2019-03-20T04:47:42.327Z,12.18
2019-03-20T04:50:13.274Z,20.15
2019-03-20T04:52:41.832Z,17.00
2019-03-20T04:55:10.961Z,27.25
2019-03-20T04:57:39.516Z,14.75
2019-03-20T05:00:16.765Z,18.07
2019-03-20T05:02:45.631Z,20.65
2019-03-20T05:05:14.355Z,12.60
2019-03-20T05:07:42.883Z,14.58
2019-03-20T05:10:13.463Z,15.78
2019-03-20T05:12:42.244Z,17.57
2019-03-20T05:15:14.738Z,24.35
2019-03-20T05:17:43.591Z,14.75
2019-03-20T05:20:21.814Z,19.17
2019-03-20T05:22:50.295Z,19.82
2019-03-20T05:25:19.083Z,25.88
2019-03-20T05:27:47.875Z,13.80
2019-03-20T05:30:16.605Z,17.27
2019-03-20T05:32:45.155Z,15.50
2019-03-20T05:35:13.958Z,18.98
2019-03-20T05:37:42.847Z,23.40
2019-03-20T05:40:15.570Z,15.30
2019-03-20T05:42:44.128Z,21.23
2019-03-20T05:45:19.492Z,25.35
2019-03-20T05:47:48.355Z,17.35
2019-03-20T05:50:17.722Z,16.90
2019-03-20T05:52:46.565Z,18.52
2019-03-20T05:55:15.159Z,19.75
2019-03-20T05:57:44.035Z,16.42
2019-03-20T06:00:15.692Z,21.82
2019-03-20T06:02:44.483Z,16.60
2019-03-20T06:05:13.380Z,19.45
2019-03-20T06:07:42.185Z,19.75
2019-03-20T06:10:12.862Z,19.52
2019-03-20T06:12:42.187Z,21.42
2019-03-20T06:15:10.961Z,20.35
2019-03-20T06:17:39.420Z,14.95
2019-03-20T06:20:15.034Z,21.12
2019-03-20T06:22:43.551Z,20.88
2019-03-20T06:25:13.757Z,21.73
2019-03-20T06:27:42.650Z,19.10
2019-03-20T06:30:16.086Z,20.45
2019-03-20T06:32:44.778Z,22.58
2019-03-20T06:35:13.735Z,17.55
2019-03-20T06:37:42.194Z,21.70
2019-03-20T06:40:12.886Z,25.37
2019-03-20T06:42:41.751Z,20.85
2019-03-20T06:45:20.875Z,12.85
2019-03-20T06:47:50.639Z,17.85
2019-03-20T06:50:23.070Z,22.67
2019-03-20T06:52:51.595Z,12.55
2019-03-20T06:55:20.451Z,19.55
2019-03-20T06:57:49.232Z,15.30
2019-03-20T07:00:23.958Z,19.98
2019-03-20T07:02:53.167Z,13.62
2019-03-20T07:05:57.878Z,19.05
2019-03-20T07:08:29.743Z,8.03
2019-03-20T07:11:06.725Z,14.10
2019-03-20T07:13:35.615Z,21.82
2019-03-20T07:16:05.732Z,23.12
2019-03-20T07:18:34.535Z,21.95
2019-03-20T07:21:03.428Z,38.58
2019-03-20T07:23:31.885Z,44.10
2019-03-20T07:26:00.617Z,32.78
2019-03-20T07:31:57.301Z,53.08
2019-03-20T07:34:26.130Z,52.75
2019-03-20T07:36:54.623Z,52.17
2019-03-20T07:39:23.141Z,47.60
2019-03-20T07:41:53.127Z,43.92
2019-03-20T07:44:21.594Z,36.38
2019-03-20T07:46:50.047Z,28.87
2019-03-20T07:49:18.887Z,28.65
2019-03-20T07:51:47.679Z,26.00
2019-03-20T07:54:16.143Z,27.00
2019-03-20T07:56:44.594Z,18.67
2019-03-20T07:59:13.063Z,22.15
2019-03-20T08:01:41.511Z,21.97
2019-03-20T08:04:09.969Z,16.42
2019-03-20T08:06:38.511Z,18.00
2019-03-20T08:09:08.012Z,15.95
2019-03-20T08:11:36.487Z,16.32
2019-03-20T08:14:05.009Z,17.60
2019-03-20T08:16:33.550Z,11.90
2019-03-20T08:19:02.000Z,22.90
2019-03-20T08:21:30.731Z,16.55
2019-03-20T08:23:59.182Z,11.12
2019-03-20T08:26:27.652Z,18.70
2019-03-20T08:28:56.099Z,18.15
2019-03-20T08:31:24.885Z,16.67
2019-03-20T08:33:53.335Z,15.83
2019-03-20T08:36:21.803Z,18.57
2019-03-20T08:38:50.247Z,19.27
2019-03-20T08:41:18.716Z,17.12
2019-03-20T08:43:47.163Z,14.10
2019-03-20T08:46:34.973Z,14.00
2019-03-20T08:49:03.820Z,14.10
2019-03-20T08:51:32.723Z,12.13
2019-03-20T08:54:01.172Z,14.60
2019-03-20T08:56:31.035Z,9.03
2019-03-20T08:58:59.485Z,12.33
2019-03-20T09:01:29.140Z,14.15
2019-03-20T09:03:58.021Z,17.30
2019-03-20T09:06:26.558Z,13.85
2019-03-20T09:08:55.299Z,10.18
2019-03-20T09:11:23.762Z,15.68
2019-03-20T09:13:52.579Z,12.05
2019-03-20T09:16:21.121Z,15.18
2019-03-20T09:18:49.682Z,11.18
2019-03-20T09:21:18.161Z,14.85
2019-03-20T09:23:46.695Z,14.65
2019-03-20T09:26:15.164Z,9.33
2019-03-20T09:28:43.879Z,12.63
2019-03-20T09:31:12.346Z,13.55
2019-03-20T09:33:41.135Z,11.75
2019-03-20T09:36:09.823Z,10.80
2019-03-20T09:38:43.509Z,10.15
2019-03-20T09:41:09.195Z,9.90
2019-03-20T09:43:37.991Z,12.28
2019-03-20T09:46:06.800Z,10.20
2019-03-20T09:48:35.255Z,12.70
2019-03-20T09:51:03.729Z,8.43
2019-03-20T09:53:32.263Z,11.93
2019-03-20T09:56:01.030Z,8.78
2019-03-20T09:58:29.502Z,12.55
2019-03-20T10:00:57.980Z,14.20
2019-03-20T10:03:26.519Z,13.25
2019-03-20T10:05:54.975Z,10.70
2019-03-20T10:08:23.767Z,11.30
2019-03-20T10:10:52.562Z,14.18
2019-03-20T10:13:21.035Z,15.38
2019-03-20T10:15:49.835Z,11.90
2019-03-20T10:18:18.563Z,15.50
2019-03-20T10:20:47.022Z,10.85
2019-03-20T10:23:15.907Z,13.10
2019-03-20T10:25:45.103Z,11.48
2019-03-20T10:28:13.767Z,10.28
2019-03-20T10:30:42.491Z,9.78
2019-03-20T10:33:11.294Z,10.15
2019-03-20T10:35:49.639Z,15.13
2019-03-20T10:38:10.015Z,7.15
2019-03-20T10:40:38.891Z,10.80
2019-03-20T10:43:07.366Z,12.58
2019-03-20T10:45:36.163Z,14.13
2019-03-20T10:48:04.962Z,8.98
2019-03-20T10:50:33.532Z,9.68
2019-03-20T10:53:02.343Z,9.55
2019-03-20T10:55:31.239Z,10.90
2019-03-20T10:58:00.034Z,8.20
2019-03-20T11:00:29.698Z,8.03
2019-03-20T11:02:58.165Z,9.58
2019-03-20T11:05:26.922Z,7.90
2019-03-20T11:07:55.405Z,7.35
2019-03-20T11:10:27.691Z,11.93
2019-03-20T11:12:56.499Z,5.37
2019-03-20T11:15:25.699Z,11.55
2019-03-20T11:17:54.246Z,8.93
2019-03-20T11:20:24.096Z,11.00
2019-03-20T11:22:52.641Z,7.28
2019-03-20T11:25:28.530Z,8.88
2019-03-20T11:27:57.311Z,7.22
2019-03-20T11:30:29.715Z,8.95
2019-03-20T11:32:58.580Z,12.70
2019-03-20T11:35:28.503Z,5.42
2019-03-20T11:37:57.396Z,6.45
2019-03-20T11:40:32.436Z,8.00
2019-03-20T11:43:00.980Z,6.58
2019-03-20T11:45:30.837Z,7.17
2019-03-20T11:47:59.303Z,8.50
2019-03-20T11:50:36.396Z,10.88
2019-03-20T11:53:06.003Z,6.62
2019-03-20T11:55:36.312Z,8.58
2019-03-20T11:58:06.032Z,9.23
2019-03-20T12:00:34.947Z,7.22
2019-03-20T12:03:03.487Z,6.85
2019-03-20T12:05:31.939Z,6.67
2019-03-20T12:08:00.716Z,8.58
2019-03-20T12:10:33.744Z,6.80
2019-03-20T12:13:02.608Z,6.80
2019-03-20T12:15:31.489Z,4.62
2019-03-20T12:17:59.955Z,6.90
2019-03-20T12:20:28.669Z,6.15
2019-03-20T12:22:57.212Z,6.08
2019-03-20T12:25:34.751Z,6.78
2019-03-20T12:28:03.357Z,8.18
2019-03-20T12:30:36.924Z,7.12
2019-03-20T12:33:06.450Z,8.45
2019-03-20T12:35:46.907Z,9.38
2019-03-20T12:38:15.613Z,6.55
2019-03-20T12:40:44.211Z,6.85
2019-03-20T12:43:12.767Z,7.78
2019-03-20T12:45:42.699Z,9.53
2019-03-20T12:48:13.935Z,9.10
2019-03-20T12:50:42.736Z,9.33
2019-03-20T12:53:14.495Z,6.35
2019-03-20T12:55:44.148Z,6.78
2019-03-20T12:58:12.602Z,7.78
2019-03-20T13:00:41.381Z,7.97
2019-03-20T13:03:09.839Z,7.75
2019-03-20T13:05:38.311Z,5.83
2019-03-20T13:08:06.788Z,8.33
2019-03-20T13:10:35.304Z,5.40
2019-03-20T13:13:04.392Z,8.98
2019-03-20T13:15:33.616Z,8.85
2019-03-20T13:18:02.524Z,14.28
2019-03-20T13:20:31.321Z,6.75
2019-03-20T13:23:12.188Z,6.37
2019-03-20T13:25:42.210Z,62.25
2019-03-20T13:28:10.654Z,7.47
2019-03-20T13:30:57.297Z,12.05
2019-03-20T13:33:26.394Z,10.78
2019-03-20T13:35:56.578Z,7.60
2019-03-20T13:38:25.404Z,6.45
2019-03-20T13:40:54.203Z,8.95
2019-03-20T13:43:22.650Z,8.95
2019-03-20T13:45:51.489Z,7.45
2019-03-20T13:48:20.011Z,8.73
2019-03-20T13:50:48.481Z,10.18
2019-03-20T13:53:16.949Z,11.20
2019-03-20T13:55:45.486Z,5.58
2019-03-20T13:58:13.946Z,10.95
2019-03-20T14:00:42.704Z,8.23
2019-03-20T14:03:11.160Z,8.38
2019-03-20T14:05:39.978Z,6.58
2019-03-20T14:08:08.434Z,6.47
2019-03-20T14:10:49.454Z,9.78
2019-03-20T14:13:07.518Z,7.37
2019-03-20T14:15:36.022Z,6.55
2019-03-20T14:18:04.819Z,6.60
2019-03-20T14:20:33.558Z,11.80
2019-03-20T14:23:02.014Z,8.75
2019-03-20T14:25:30.478Z,6.17
2019-03-20T14:27:59.219Z,5.72
2019-03-20T14:30:34.111Z,4.72
2019-03-20T14:33:02.566Z,5.28
2019-03-20T14:35:32.371Z,6.53
2019-03-20T14:38:01.963Z,5.20
2019-03-20T14:40:36.279Z,6.05
2019-03-20T14:43:02.860Z,4.80
2019-03-20T14:45:32.743Z,7.42
2019-03-20T14:48:01.257Z,4.90
2019-03-20T14:50:31.147Z,5.25
2019-03-20T14:52:59.667Z,4.58
2019-03-20T14:55:28.209Z,3.20
2019-03-20T14:57:57.012Z,5.95
2019-03-20T15:00:29.519Z,1.85
2019-03-20T15:02:58.490Z,12.93
2019-03-20T15:05:27.279Z,4.15
2019-03-20T15:07:55.735Z,12.70
2019-03-20T15:10:27.950Z,4.85
2019-03-20T15:12:56.738Z,6.42
2019-03-20T15:15:43.931Z,5.12
2019-03-20T15:18:12.746Z,4.47
2019-03-20T15:20:41.281Z,4.08
2019-03-20T15:23:10.140Z,5.58
2019-03-20T15:25:40.211Z,4.33
2019-03-20T15:28:09.037Z,27.10
2019-03-20T15:30:37.583Z,5.75
2019-03-20T15:33:06.040Z,4.97
2019-03-20T15:35:34.580Z,3.40
2019-03-20T15:38:03.031Z,2.95
2019-03-20T15:40:31.771Z,6.15
2019-03-20T15:43:00.559Z,4.00
2019-03-20T15:45:29.351Z,6.80
2019-03-20T15:47:58.140Z,6.58
2019-03-20T15:50:27.811Z,5.83
2019-03-20T15:52:56.963Z,7.47
2019-03-20T15:55:30.905Z,6.20
2019-03-20T15:57:59.977Z,8.97
2019-03-20T16:00:28.587Z,6.40
2019-03-20T16:03:19.917Z,5.42
2019-03-20T16:05:48.752Z,5.45
2019-03-20T16:08:17.544Z,5.85
2019-03-20T16:10:46.439Z,5.55
2019-03-20T16:13:15.895Z,6.45
2019-03-20T16:15:44.364Z,9.25
2019-03-20T16:18:12.812Z,6.22
2019-03-20T16:20:41.283Z,6.78
2019-03-20T16:23:09.736Z,3.40
2019-03-20T16:25:38.195Z,7.67
2019-03-20T16:28:06.975Z,8.23
2019-03-20T16:30:35.418Z,9.23
2019-03-20T16:33:04.064Z,4.92
2019-03-20T16:35:32.836Z,4.60
2019-03-20T16:38:01.385Z,7.53
2019-03-20T16:40:36.367Z,4.90
2019-03-20T16:43:05.371Z,5.83
2019-03-20T16:45:34.959Z,7.47
2019-03-20T16:48:04.558Z,8.63
2019-03-20T16:50:33.371Z,9.85
2019-03-20T16:53:02.273Z,17.42
2019-03-20T16:55:30.714Z,9.30
2019-03-20T16:57:59.201Z,19.65
2019-03-20T17:00:29.671Z,20.55
2019-03-20T17:02:59.993Z,14.43
2019-03-20T17:05:29.378Z,13.18
2019-03-20T17:07:57.924Z,15.53
2019-03-20T17:10:28.019Z,18.82
2019-03-20T17:12:56.484Z,25.17
2019-03-20T17:15:27.334Z,17.50
2019-03-20T17:17:55.870Z,13.88
2019-03-20T17:20:24.620Z,22.25
2019-03-20T17:22:53.416Z,32.10
2019-03-20T17:25:21.871Z,23.07
2019-03-20T17:27:50.685Z,26.97
2019-03-20T17:30:28.183Z,16.05
2019-03-20T17:32:56.720Z,12.33
2019-03-20T17:35:25.560Z,17.02
2019-03-20T17:37:54.035Z,18.30
2019-03-20T17:40:24.066Z,15.90
2019-03-20T17:42:52.796Z,17.65
2019-03-20T17:45:22.874Z,21.77
2019-03-20T17:47:51.607Z,20.32
2019-03-20T17:50:27.932Z,32.65
2019-03-20T17:52:57.751Z,23.92
2019-03-20T17:55:26.731Z,17.75
2019-03-20T17:57:55.203Z,20.77
2019-03-20T18:00:39.787Z,16.97
2019-03-20T18:03:08.395Z,18.15
2019-03-20T18:05:37.482Z,33.85
2019-03-20T18:08:06.962Z,23.83
2019-03-20T18:10:35.774Z,16.50
2019-03-20T18:13:05.895Z,13.40
2019-03-20T18:15:34.420Z,13.95
2019-03-20T18:18:02.962Z,12.13
2019-03-20T18:20:31.410Z,12.07
2019-03-20T18:22:59.891Z,16.75
2019-03-20T18:25:28.415Z,14.43
2019-03-20T18:27:57.355Z,13.60
2019-03-20T18:30:28.119Z,14.23
2019-03-20T18:32:56.598Z,17.95
2019-03-20T18:35:25.115Z,14.95
2019-03-20T18:37:53.935Z,16.55
2019-03-20T18:40:28.715Z,27.42
2019-03-20T18:42:57.196Z,10.50
2019-03-20T18:45:26.459Z,13.53
2019-03-20T18:47:55.169Z,12.73
2019-03-20T18:50:24.260Z,10.10
2019-03-20T18:52:53.245Z,18.80
2019-03-20T18:55:22.133Z,22.75
2019-03-20T18:57:50.750Z,8.40
2019-03-20T19:00:26.450Z,7.25
2019-03-20T19:03:03.887Z,13.18
2019-03-20T19:05:38.498Z,17.75
2019-03-20T19:08:07.384Z,10.68
2019-03-20T19:10:37.209Z,10.63
2019-03-20T19:13:05.888Z,14.55
2019-03-20T19:15:34.336Z,19.15
2019-03-20T19:18:02.894Z,14.87
2019-03-20T19:20:31.414Z,19.52
2019-03-20T19:23:00.156Z,19.25
2019-03-20T19:25:29.033Z,16.75
2019-03-20T19:27:57.585Z,16.32
2019-03-20T19:30:27.643Z,11.78
2019-03-20T19:32:56.163Z,16.77
2019-03-20T19:35:25.026Z,15.15
2019-03-20T19:37:53.818Z,13.43
2019-03-20T19:40:22.995Z,11.35
2019-03-20T19:42:51.452Z,14.07
2019-03-20T19:45:20.024Z,16.82
2019-03-20T19:47:48.897Z,14.25
2019-03-20T19:50:24.178Z,11.33
2019-03-20T19:52:52.692Z,18.23
2019-03-20T19:55:21.165Z,14.55
2019-03-20T19:57:49.611Z,11.00
2019-03-20T20:00:28.918Z,16.57
2019-03-20T20:02:57.374Z,12.55
2019-03-20T20:05:27.115Z,14.35
2019-03-20T20:07:55.571Z,13.03
2019-03-20T20:10:24.038Z,17.92
2019-03-20T20:12:52.775Z,14.85
2019-03-20T20:15:31.754Z,14.63
2019-03-20T20:18:00.214Z,16.50
2019-03-20T20:20:37.012Z,12.47
2019-03-20T20:23:05.603Z,12.98
2019-03-20T20:25:34.072Z,18.57
2019-03-20T20:28:02.933Z,15.45
2019-03-20T20:30:31.827Z,10.85
2019-03-20T20:33:00.620Z,17.85
2019-03-20T20:35:29.409Z,18.35
2019-03-20T20:37:57.932Z,15.70
2019-03-20T20:40:28.000Z,12.60
2019-03-20T20:42:56.447Z,16.30
2019-03-20T20:45:24.929Z,14.40
2019-03-20T20:47:53.709Z,17.30
2019-03-20T20:50:22.325Z,14.80
2019-03-20T20:52:50.842Z,15.60
2019-03-20T20:55:20.730Z,16.57
2019-03-20T20:57:49.670Z,18.77
2019-03-20T21:00:22.095Z,18.57
2019-03-20T21:02:51.043Z,13.75
2019-03-20T21:05:19.583Z,18.98
2019-03-20T21:07:48.047Z,20.40
2019-03-20T21:10:17.681Z,23.83
2019-03-20T21:12:55.516Z,15.10
2019-03-20T21:15:22.376Z,15.88
2019-03-20T21:18:12.309Z,19.85
2019-03-20T21:20:42.470Z,23.65
2019-03-20T21:23:38.384Z,18.23
2019-03-20T21:26:22.267Z,18.32
2019-03-20T21:29:26.867Z,26.23
2019-03-20T21:32:04.120Z,16.57
2019-03-20T21:35:00.975Z,17.23
2019-03-20T21:37:38.048Z,20.80
2019-03-20T21:40:09.716Z,20.02
2019-03-20T21:43:14.343Z,22.60
2019-03-20T21:45:55.367Z,21.00
2019-03-20T21:48:24.162Z,16.60
2019-03-20T21:50:56.027Z,20.00
2019-03-20T21:53:30.400Z,20.52
2019-03-20T21:58:53.615Z,21.85
2019-03-20T22:01:42.054Z,19.17
2019-03-20T22:04:10.503Z,18.80
2019-03-20T22:07:15.935Z,18.65
2019-03-20T22:12:44.165Z,23.77
2019-03-20T22:15:40.272Z,26.68
2019-03-20T22:18:45.211Z,22.82
2019-03-20T22:21:22.505Z,19.40
2019-03-20T22:24:22.782Z,18.82
2019-03-20T22:26:59.860Z,18.45
2019-03-20T22:29:28.755Z,21.95
2019-03-20T22:32:12.801Z,20.12
2019-03-20T22:34:53.672Z,23.22
2019-03-20T22:37:22.148Z,19.40
2019-03-20T22:40:10.902Z,21.23
2019-03-20T22:43:11.424Z,22.48
2019-03-20T22:45:59.229Z,20.15
2019-03-20T22:48:47.687Z,21.50
2019-03-20T22:51:39.095Z,19.10
2019-03-20T22:54:44.096Z,19.57
2019-03-20T22:57:15.651Z,21.90
2019-03-20T22:59:44.476Z,21.93
2019-03-20T23:02:32.794Z,18.42
2019-03-20T23:05:01.595Z,16.10
2019-03-20T23:07:32.996Z,17.75
2019-03-20T23:10:01.753Z,18.40
2019-03-20T23:12:30.272Z,18.70
2019-03-20T23:14:59.014Z,20.97
2019-03-20T23:17:27.484Z,20.10
2019-03-20T23:19:56.184Z,22.93
2019-03-20T23:22:24.989Z,19.62
2019-03-20T23:24:53.886Z,18.30
2019-03-20T23:27:26.767Z,17.75
2019-03-20T23:29:55.560Z,17.35
2019-03-20T23:32:24.015Z,19.12
2019-03-20T23:34:52.483Z,21.15
2019-03-20T23:37:20.935Z,22.85
2019-03-20T23:39:49.707Z,21.90
2019-03-20T23:42:18.171Z,23.57
2019-03-20T23:44:46.639Z,19.45
2019-03-20T23:47:15.374Z,26.42
2019-03-20T23:49:43.918Z,17.65
2019-03-20T23:52:12.647Z,17.37
2019-03-20T23:54:45.268Z,19.87
2019-03-20T23:57:14.095Z,21.37
2019-03-20T23:59:42.914Z,19.95
